Time;durP1;ratioP1;P1;durP2;ratioP2;P2;SDS_P1;SDS_P2;PMS_P1;PMS_P2;Temp;Humidity;BMP_temperature;BMP_pressure;BME280_temperature;BME280_humidity;BME280_pressure;Samples;Min_cycle;Max_cycle;Signal;HPM_P1;HPM_P2
2023/03/25 00:00:19;;;;;;;;;;;9.70;99.90;;;;;;5027154;28;19925;-93
2023/03/25 00:02:52;;;;;;;;;;;9.70;99.90;;;;;;5028900;28;19929;-95
2023/03/25 00:05:19;;;;;;;;;;;9.70;99.90;;;;;;5028590;28;19932;-95
2023/03/25 00:07:47;;;;;;;;;;;9.80;99.90;;;;;;5025139;28;19933;-94
2023/03/25 00:10:19;;;;;;;;;;;9.70;99.90;;;;;;5021148;28;19925;-94
2023/03/25 00:12:47;;;;;;;;;;;9.70;99.90;;;;;;5024735;28;19926;-94
2023/03/25 00:15:15;;;;;;;;;;;9.70;99.90;;;;;;5051550;28;19925;-93
2023/03/25 00:17:41;;;;;;;;;;;9.70;99.90;;;;;;5028577;28;19925;-94
2023/03/25 00:20:08;;;;;;;;;;;9.90;99.90;;;;;;5042146;28;19929;-93
2023/03/25 00:22:39;;;;;;;;;;;8.30;99.90;;;;;;5041161;28;19925;-94
2023/03/25 00:25:08;;;;;;;;;;;9.70;99.90;;;;;;5043122;28;20401;-92
2023/03/25 00:27:34;;;;;;;;;;;9.90;99.90;;;;;;5026511;28;20011;-95
2023/03/25 00:30:00;;;;;;;;;;;9.80;99.90;;;;;;5028758;28;19968;-93
2023/03/25 00:32:28;;;;;;;;;;;9.80;99.90;;;;;;5005450;28;19929;-94
2023/03/25 00:34:58;;;;;;;;;;;9.60;99.90;;;;;;5009370;28;19933;-96
2023/03/25 00:37:24;;;;;;;;;;;9.50;99.90;;;;;;5026736;28;20000;-93
2023/03/25 00:39:50;;;;;;;;;;;9.40;99.90;;;;;;5026576;28;19926;-95
2023/03/25 00:42:16;;;;;;;;;;;9.30;99.90;;;;;;5033228;28;19956;-94
2023/03/25 00:44:42;;;;;;;;;;;9.30;99.90;;;;;;5030832;28;19951;-93
2023/03/25 00:47:10;;;;;;;;;;;9.20;99.90;;;;;;5031783;28;19929;-94
2023/03/25 00:49:36;;;;;;;;;;;9.20;99.90;;;;;;5047409;28;19929;-95
2023/03/25 00:52:02;;;;;;;;;;;9.40;99.90;;;;;;5029685;28;19970;-94
2023/03/25 00:54:28;;;;;;;;;;;9.20;99.90;;;;;;5050364;28;19936;-94
2023/03/25 00:56:53;;;;;;;;;;;9.00;99.90;;;;;;5032412;28;19929;-94
2023/03/25 00:59:19;;;;;;;;;;;9.20;99.90;;;;;;5033422;28;19965;-95
2023/03/25 01:01:45;;;;;;;;;;;9.60;99.90;;;;;;5030904;28;19929;-93
2023/03/25 01:04:11;;;;;;;;;;;9.10;99.90;;;;;;5027924;28;19966;-93
2023/03/25 01:06:40;;;;;;;;;;;9.10;99.90;;;;;;5028736;28;19980;-93
2023/03/25 01:09:06;;;;;;;;;;;9.00;99.90;;;;;;5040772;28;19925;-94
2023/03/25 01:11:33;;;;;;;;;;;8.90;99.90;;;;;;5023533;28;19933;-93
2023/03/25 01:14:00;;;;;;;;;;;7.90;99.90;;;;;;5025893;28;19932;-95
2023/03/25 01:16:26;;;;;;;;;;;8.80;99.90;;;;;;5046458;28;19936;-94
2023/03/25 01:18:51;;;;;;;;;;;8.60;99.90;;;;;;5034254;28;19980;-94
2023/03/25 01:21:17;;;;;;;;;;;8.60;99.90;;;;;;5027920;28;19932;-93
2023/03/25 01:23:43;;;;;;;;;;;8.30;99.90;;;;;;5025716;28;19925;-93
2023/03/25 01:26:09;;;;;;;;;;;8.50;99.90;;;;;;5030734;28;19925;-95
2023/03/25 01:28:34;;;;;;;;;;;8.50;99.90;;;;;;5045363;28;19932;-93
2023/03/25 01:31:01;;;;;;;;;;;8.50;99.90;;;;;;5023738;28;19925;-93
2023/03/25 01:33:27;;;;;;;;;;;8.60;99.90;;;;;;5027317;28;19929;-92
2023/03/25 01:35:52;;;;;;;;;;;8.50;99.90;;;;;;5034752;28;20019;-95
2023/03/25 01:38:18;;;;;;;;;;;8.50;99.90;;;;;;5046075;28;19932;-94
2023/03/25 01:40:44;;;;;;;;;;;8.50;99.90;;;;;;5031089;28;19940;-93
2023/03/25 01:43:12;;;;;;;;;;;8.50;99.90;;;;;;5031167;28;19977;-94
2023/03/25 01:45:38;;;;;;;;;;;8.50;99.90;;;;;;5029336;28;19932;-92
2023/03/25 01:48:09;;;;;;;;;;;8.40;99.90;;;;;;5010837;28;19925;-93
2023/03/25 01:50:37;;;;;;;;;;;8.40;99.90;;;;;;5028484;28;19939;-94
2023/03/25 01:53:07;;;;;;;;;;;8.40;99.90;;;;;;5026540;28;19926;-95
2023/03/25 01:55:34;;;;;;;;;;;8.40;99.90;;;;;;5053242;28;19925;-95
2023/03/25 01:58:01;;;;;;;;;;;9.10;99.90;;;;;;5037866;28;19926;-96
2023/03/25 02:00:27;;;;;;;;;;;8.90;99.90;;;;;;5036040;28;19956;-95
2023/03/25 02:02:57;;;;;;;;;;;8.40;99.90;;;;;;5034934;28;19925;-96
2023/03/25 02:05:35;;;;;;;;;;;8.40;99.90;;;;;;5048569;28;19929;-96
2023/03/25 02:08:02;;;;;;;;;;;8.40;99.90;;;;;;5029333;28;19925;-96
2023/03/25 02:10:28;;;;;;;;;;;8.50;99.90;;;;;;5032919;28;19921;-96
2023/03/25 02:12:54;;;;;;;;;;;7.90;99.90;;;;;;5040464;22;19932;-87
2023/03/25 02:15:20;;;;;;;;;;;8.40;99.90;;;;;;4987536;28;19936;-88
2023/03/25 02:18:12;;;;;;;;;;;8.50;99.90;;;;;;4991222;28;20024;-88
2023/03/25 02:21:04;;;;;;;;;;;8.50;99.90;;;;;;4981899;28;19933;-90
2023/03/25 02:23:30;;;;;;;;;;;8.70;99.90;;;;;;4982244;28;19926;-89
2023/03/25 02:26:11;;;;;;;;;;;8.50;99.90;;;;;;4994003;28;19930;-89
2023/03/25 02:28:46;;;;;;;;;;;8.50;99.90;;;;;;4993893;28;20013;-88
2023/03/25 02:31:24;;;;;;;;;;;8.70;99.90;;;;;;4990324;28;19992;-90
2023/03/25 02:34:04;;;;;;;;;;;8.40;99.90;;;;;;4980798;28;20362;-90
2023/03/25 02:36:48;;;;;;;;;;;8.60;99.90;;;;;;4983982;28;19945;-91
2023/03/25 02:39:14;;;;;;;;;;;8.60;99.90;;;;;;4983096;28;20005;-89
2023/03/25 02:42:03;;;;;;;;;;;7.70;99.90;;;;;;4992508;28;19976;-89
2023/03/25 02:45:01;;;;;;;;;;;8.70;99.90;;;;;;4985815;28;19929;-89
2023/03/25 02:47:47;;;;;;;;;;;8.70;99.90;;;;;;4987376;28;19930;-90
2023/03/25 02:50:16;;;;;;;;;;;8.70;99.90;;;;;;4979326;28;19925;-90
2023/03/25 02:52:43;;;;;;;;;;;8.60;99.90;;;;;;4983557;28;19930;-90
2023/03/25 02:55:11;;;;;;;;;;;8.50;99.90;;;;;;4992670;28;19929;-89
2023/03/25 02:57:43;;;;;;;;;;;8.60;99.90;;;;;;4983335;28;19927;-91
2023/03/25 03:00:14;;;;;;;;;;;8.60;99.90;;;;;;4981719;28;19926;-91
2023/03/25 03:02:52;;;;;;;;;;;8.50;99.90;;;;;;4983039;28;19969;-91
2023/03/25 03:05:33;;;;;;;;;;;8.60;99.90;;;;;;4994445;28;19985;-90
2023/03/25 03:08:20;;;;;;;;;;;8.60;99.90;;;;;;4959911;28;19926;-89
2023/03/25 03:10:52;;;;;;;;;;;8.60;99.90;;;;;;4982921;28;19930;-89
2023/03/25 03:13:17;;;;;;;;;;;7.20;99.90;;;;;;4992416;28;19932;-90
2023/03/25 03:15:52;;;;;;;;;;;8.60;99.90;;;;;;4992720;28;20321;-89
2023/03/25 03:18:33;;;;;;;;;;;8.50;99.90;;;;;;4994761;28;19927;-89
2023/03/25 03:21:15;;;;;;;;;;;8.60;99.90;;;;;;4977239;28;19948;-90
2023/03/25 03:23:50;;;;;;;;;;;8.70;99.90;;;;;;4973815;28;20410;-90
2023/03/25 03:26:47;;;;;;;;;;;;;;;;;;;;;
2023/03/25 03:29:27;;;;;;;;;;;8.50;99.90;;;;;;4999454;28;19926;-90
2023/03/25 03:32:05;;;;;;;;;;;8.50;99.90;;;;;;4984357;28;20030;-90
2023/03/25 03:34:48;;;;;;;;;;;8.60;99.90;;;;;;4984884;28;19931;-90
2023/03/25 03:37:26;;;;;;;;;;;7.10;99.90;;;;;;4996538;28;19965;-92
2023/03/25 03:39:58;;;;;;;;;;;8.50;99.90;;;;;;4994649;28;19926;-90
2023/03/25 03:42:34;;;;;;;;;;;8.50;99.90;;;;;;5021961;28;19914;-89
2023/03/25 03:45:14;;;;;;;;;;;8.50;99.90;;;;;;5012133;28;19913;-90
2023/03/25 03:47:44;;;;;;;;;;;8.60;99.90;;;;;;5015044;28;19913;-90
2023/03/25 03:50:17;;;;;;;;;;;8.50;99.90;;;;;;5027062;28;19952;-91
2023/03/25 03:52:46;;;;;;;;;;;8.50;99.90;;;;;;5007566;28;19926;-89
2023/03/25 03:55:31;;;;;;;;;;;8.60;99.90;;;;;;4994140;28;19926;-91
2023/03/25 03:58:05;;;;;;;;;;;8.50;99.90;;;;;;4969422;28;19930;-89
2023/03/25 04:00:36;;;;;;;;;;;8.60;99.90;;;;;;4993164;28;19933;-91
2023/03/25 04:03:13;;;;;;;;;;;10.30;99.90;;;;;;4992770;28;19926;-92
2023/03/25 04:05:45;;;;;;;;;;;8.40;99.90;;;;;;5006842;28;19926;-92
2023/03/25 04:08:13;;;;;;;;;;;8.50;99.90;;;;;;4992552;28;20394;-91
2023/03/25 04:10:53;;;;;;;;;;;8.50;99.90;;;;;;4995287;28;19984;-91
2023/03/25 04:13:22;;;;;;;;;;;8.50;99.90;;;;;;5011653;28;19937;-89
2023/03/25 04:15:50;;;;;;;;;;;8.40;99.90;;;;;;5012138;28;19994;-89
2023/03/25 04:18:16;;;;;;;;;;;8.30;99.90;;;;;;4992309;28;19937;-91
2023/03/25 04:20:48;;;;;;;;;;;8.40;99.90;;;;;;4990363;28;19993;-91
2023/03/25 04:23:16;;;;;;;;;;;8.60;99.90;;;;;;4989562;28;19933;-92
2023/03/25 04:25:46;;;;;;;;;;;8.40;99.90;;;;;;4972145;28;19926;-90
2023/03/25 04:28:14;;;;;;;;;;;8.50;99.90;;;;;;4980086;28;19932;-90
2023/03/25 04:30:40;;;;;;;;;;;8.40;99.90;;;;;;5001078;28;20015;-90
2023/03/25 04:33:30;;;;;;;;;;;8.40;99.90;;;;;;4982302;28;19973;-92
2023/03/25 04:36:00;;;;;;;;;;;7.60;99.90;;;;;;4978388;28;20297;-90
2023/03/25 04:38:28;;;;;;;;;;;8.30;99.90;;;;;;4972110;28;19960;-90
2023/03/25 04:40:57;;;;;;;;;;;9.10;99.90;;;;;;5003051;28;19925;-91
2023/03/25 04:43:27;;;;;;;;;;;8.30;99.90;;;;;;4979487;28;19925;-91
2023/03/25 04:45:53;;;;;;;;;;;8.50;99.90;;;;;;4975514;28;19934;-90
2023/03/25 04:48:24;;;;;;;;;;;8.30;99.90;;;;;;4998008;28;19925;-90
2023/03/25 04:51:11;;;;;;;;;;;7.00;99.90;;;;;;4989736;28;19926;-89
2023/03/25 04:53:37;;;;;;;;;;;8.40;99.90;;;;;;4971115;28;19930;-90
2023/03/25 04:56:06;;;;;;;;;;;8.20;99.90;;;;;;4991299;28;19926;-90
2023/03/25 04:58:32;;;;;;;;;;;8.30;99.90;;;;;;4980957;28;20401;-91
2023/03/25 05:01:04;;;;;;;;;;;8.20;99.90;;;;;;4976301;28;19926;-90
2023/03/25 05:03:38;;;;;;;;;;;8.20;99.90;;;;;;4995973;28;20072;-90
2023/03/25 05:06:07;;;;;;;;;;;8.30;99.90;;;;;;4980989;28;20282;-91
2023/03/25 05:08:38;;;;;;;;;;;6.60;99.90;;;;;;4996384;28;19925;-90
2023/03/25 05:11:09;;;;;;;;;;;8.30;99.90;;;;;;4991200;28;19940;-89
2023/03/25 05:13:36;;;;;;;;;;;8.20;99.90;;;;;;4974309;28;20378;-90
2023/03/25 05:16:12;;;;;;;;;;;;;;;;;;;;;
2023/03/25 05:18:38;;;;;;;;;;;6.80;99.90;;;;;;5005918;28;19962;-89
2023/03/25 05:21:11;;;;;;;;;;;8.20;99.90;;;;;;4997351;28;19987;-90
2023/03/25 05:23:40;;;;;;;;;;;8.30;99.90;;;;;;4978038;28;19925;-89
2023/03/25 05:26:06;;;;;;;;;;;8.20;99.90;;;;;;4996143;28;20024;-90
2023/03/25 05:28:42;;;;;;;;;;;8.30;99.90;;;;;;4984024;28;20016;-90
2023/03/25 05:31:08;;;;;;;;;;;8.30;99.90;;;;;;4994667;28;20008;-89
2023/03/25 05:33:36;;;;;;;;;;;8.30;99.90;;;;;;4985945;28;20013;-89
2023/03/25 05:36:04;;;;;;;;;;;8.40;99.90;;;;;;4995836;28;19984;-89
2023/03/25 05:38:36;;;;;;;;;;;8.30;99.90;;;;;;4997503;28;20341;-89
2023/03/25 05:41:10;;;;;;;;;;;6.50;99.90;;;;;;4997741;28;19988;-92
2023/03/25 05:43:37;;;;;;;;;;;8.40;99.90;;;;;;4981793;28;19937;-90
2023/03/25 05:46:04;;;;;;;;;;;8.40;99.90;;;;;;4981810;28;20401;-90
2023/03/25 05:48:34;;;;;;;;;;;9.50;99.90;;;;;;4990785;28;19929;-88
2023/03/25 05:51:04;;;;;;;;;;;8.50;99.90;;;;;;4987554;28;19926;-89
2023/03/25 05:53:31;;;;;;;;;;;8.40;99.90;;;;;;4994242;28;20293;-89
2023/03/25 05:56:00;;;;;;;;;;;7.50;99.90;;;;;;4971902;28;20301;-90
2023/03/25 05:58:28;;;;;;;;;;;8.50;99.90;;;;;;4970795;28;20404;-90
2023/03/25 06:00:56;;;;;;;;;;;8.40;99.90;;;;;;4980588;28;19926;-90
2023/03/25 06:03:24;;;;;;;;;;;8.40;99.90;;;;;;5005241;28;20386;-90
2023/03/25 06:05:55;;;;;;;;;;;9.00;99.90;;;;;;4989365;28;20392;-91
2023/03/25 06:08:24;;;;;;;;;;;7.50;99.90;;;;;;4978881;28;19933;-89
2023/03/25 06:10:54;;;;;;;;;;;8.70;99.90;;;;;;4975417;28;20394;-89
2023/03/25 06:13:27;;;;;;;;;;;6.80;99.90;;;;;;5004640;28;20016;-88
2023/03/25 06:15:55;;;;;;;;;;;8.50;99.90;;;;;;4990809;28;19926;-89
2023/03/25 06:18:23;;;;;;;;;;;8.60;99.90;;;;;;4964330;28;19968;-89
2023/03/25 06:20:54;;;;;;;;;;;8.60;99.90;;;;;;4975703;28;20012;-88
2023/03/25 06:23:23;;;;;;;;;;;7.90;99.90;;;;;;4975365;28;19926;-90
2023/03/25 06:25:49;;;;;;;;;;;8.40;99.90;;;;;;4981665;28;19949;-89
2023/03/25 06:28:17;;;;;;;;;;;8.60;99.90;;;;;;4977456;28;20020;-88
2023/03/25 06:30:46;;;;;;;;;;;8.50;99.90;;;;;;5003430;28;19949;-90
2023/03/25 06:33:18;;;;;;;;;;;8.50;99.90;;;;;;5002333;28;19925;-89
2023/03/25 06:35:48;;;;;;;;;;;8.50;99.90;;;;;;5013665;28;19926;-88
2023/03/25 06:38:14;;;;;;;;;;;8.50;99.90;;;;;;4980540;28;19933;-90
2023/03/25 06:40:43;;;;;;;;;;;8.50;99.90;;;;;;4980474;28;19925;-90
2023/03/25 06:43:09;;;;;;;;;;;8.50;99.90;;;;;;4990802;28;19926;-86
2023/03/25 06:45:37;;;;;;;;;;;8.40;99.90;;;;;;4994780;28;19980;-87
2023/03/25 06:48:05;;;;;;;;;;;7.50;99.90;;;;;;4976485;28;19926;-88
2023/03/25 06:50:31;;;;;;;;;;;8.30;99.90;;;;;;4978255;28;19926;-84
2023/03/25 06:52:58;;;;;;;;;;;8.30;99.90;;;;;;4991831;28;19936;-86
2023/03/25 06:55:23;;;;;;;;;;;8.40;99.90;;;;;;4974586;28;19925;-86
2023/03/25 06:58:01;;;;;;;;;;;8.40;99.90;;;;;;4990709;28;19932;-86
2023/03/25 07:00:27;;;;;;;;;;;8.40;99.90;;;;;;4977658;28;19933;-86
2023/03/25 07:02:53;;;;;;;;;;;8.50;99.90;;;;;;4958923;28;20009;-85
2023/03/25 07:05:19;;;;;;;;;;;8.50;99.90;;;;;;4993239;28;19976;-91
2023/03/25 07:07:50;;;;;;;;;;;8.50;99.90;;;;;;4977601;28;19925;-91
2023/03/25 07:10:16;;;;;;;;;;;7.70;99.90;;;;;;4974328;28;19937;-90
2023/03/25 07:12:52;;;;;;;;;;;8.70;99.90;;;;;;4977458;28;19933;-92
2023/03/25 07:15:30;;;;;;;;;;;9.30;99.90;;;;;;4995739;28;19937;-94
2023/03/25 07:17:56;;;;;;;;;;;9.10;99.90;;;;;;4990327;28;20321;-90
2023/03/25 07:20:33;;;;;;;;;;;9.00;99.90;;;;;;4998788;28;20016;-91
2023/03/25 07:23:04;;;;;;;;;;;7.80;99.90;;;;;;4967095;28;19933;-94
2023/03/25 07:25:30;;;;;;;;;;;8.40;99.90;;;;;;4970682;28;19980;-90
2023/03/25 07:28:04;;;;;;;;;;;8.10;99.90;;;;;;4985903;28;19992;-93
2023/03/25 07:30:30;;;;;;;;;;;9.30;99.90;;;;;;4986609;28;20028;-90
2023/03/25 07:33:03;;;;;;;;;;;8.90;99.90;;;;;;4991686;28;19980;-92
2023/03/25 07:35:28;;;;;;;;;;;8.80;99.90;;;;;;4997039;28;19926;-88
2023/03/25 07:37:57;;;;;;;;;;;8.50;99.90;;;;;;4999333;28;19933;-89
2023/03/25 07:40:23;;;;;;;;;;;7.30;99.90;;;;;;4965928;28;19926;-90
2023/03/25 07:42:51;;;;;;;;;;;8.50;99.90;;;;;;4993389;28;19936;-94
2023/03/25 07:45:17;;;;;;;;;;;7.60;99.90;;;;;;4978335;28;19933;-90
2023/03/25 07:47:48;;;;;;;;;;;8.60;99.90;;;;;;4976482;28;20361;-91
2023/03/25 07:50:20;;;;;;;;;;;8.60;99.90;;;;;;4998193;28;19933;-90
2023/03/25 07:52:46;;;;;;;;;;;8.50;99.90;;;;;;4990359;28;20348;-91
2023/03/25 07:55:21;;;;;;;;;;;8.00;99.90;;;;;;5005344;28;19926;-94
2023/03/25 07:57:49;;;;;;;;;;;8.30;99.90;;;;;;4981219;28;19921;-92
2023/03/25 08:00:15;;;;;;;;;;;8.40;99.90;;;;;;4995039;28;19957;-90
2023/03/25 08:02:41;;;;;;;;;;;8.50;99.90;;;;;;5012154;28;19949;-91
2023/03/25 08:05:10;;;;;;;;;;;8.40;99.90;;;;;;4997177;28;19914;-93
2023/03/25 08:07:43;;;;;;;;;;;8.50;99.90;;;;;;5015219;28;19941;-90
2023/03/25 08:10:14;;;;;;;;;;;9.40;99.90;;;;;;4988858;28;19914;-93
2023/03/25 08:12:42;;;;;;;;;;;8.60;99.90;;;;;;4996594;28;19930;-93
2023/03/25 08:15:08;;;;;;;;;;;8.30;99.90;;;;;;4972777;28;19950;-91
2023/03/25 08:17:37;;;;;;;;;;;10.30;99.90;;;;;;4989785;28;19914;-91
2023/03/25 08:20:06;;;;;;;;;;;8.40;99.90;;;;;;5008538;28;19933;-92
2023/03/25 08:22:35;;;;;;;;;;;8.60;99.90;;;;;;4998725;28;19925;-91
2023/03/25 08:25:00;;;;;;;;;;;8.40;99.90;;;;;;4972663;28;19930;-89
2023/03/25 08:27:29;;;;;;;;;;;8.40;99.90;;;;;;4994085;28;19941;-90
2023/03/25 08:29:58;;;;;;;;;;;7.20;99.90;;;;;;4994269;28;19980;-92
2023/03/25 08:32:25;;;;;;;;;;;8.70;99.90;;;;;;5000743;28;19926;-92
2023/03/25 08:34:50;;;;;;;;;;;8.80;99.90;;;;;;4976899;28;19930;-91
2023/03/25 08:37:16;;;;;;;;;;;9.20;99.90;;;;;;4989169;28;19929;-89
2023/03/25 08:39:44;;;;;;;;;;;7.20;99.90;;;;;;4959299;28;19930;-90
2023/03/25 08:42:12;;;;;;;;;;;8.90;99.90;;;;;;4974629;28;19994;-89
2023/03/25 08:44:41;;;;;;;;;;;8.70;99.90;;;;;;4985062;28;20029;-91
2023/03/25 08:47:06;;;;;;;;;;;8.60;99.90;;;;;;4964210;28;20002;-89
2023/03/25 08:49:32;;;;;;;;;;;8.60;99.90;;;;;;4977559;28;19929;-90
2023/03/25 08:52:00;;;;;;;;;;;8.70;99.90;;;;;;4974321;28;19926;-91
2023/03/25 08:54:29;;;;;;;;;;;8.60;99.90;;;;;;4975342;28;19937;-89
2023/03/25 08:56:54;;;;;;;;;;;8.70;99.90;;;;;;4989956;28;19933;-88
2023/03/25 08:59:22;;;;;;;;;;;8.80;99.90;;;;;;4999287;28;19930;-89
2023/03/25 09:01:48;;;;;;;;;;;8.70;99.90;;;;;;4962772;28;19932;-90
2023/03/25 09:04:14;;;;;;;;;;;8.80;99.90;;;;;;4998981;28;19926;-91
2023/03/25 09:06:42;;;;;;;;;;;8.80;99.90;;;;;;4978022;28;19930;-91
2023/03/25 09:09:10;;;;;;;;;;;8.90;99.90;;;;;;4979467;28;20381;-91
2023/03/25 09:11:39;;;;;;;;;;;9.10;99.90;;;;;;4955107;28;19936;-91
2023/03/25 09:14:08;;;;;;;;;;;9.20;99.90;;;;;;4968866;28;19980;-93
2023/03/25 09:16:34;;;;;;;;;;;9.70;99.90;;;;;;4974130;28;19996;-90
2023/03/25 09:19:00;;;;;;;;;;;9.50;99.90;;;;;;4989329;28;19973;-91
2023/03/25 09:21:26;;;;;;;;;;;9.60;99.90;;;;;;4978129;28;19930;-91
2023/03/25 09:23:52;;;;;;;;;;;9.60;99.90;;;;;;4960726;28;19933;-91
2023/03/25 09:26:20;;;;;;;;;;;9.60;99.90;;;;;;4958751;28;20401;-91
2023/03/25 09:28:46;;;;;;;;;;;9.70;99.90;;;;;;4987188;28;19937;-90
2023/03/25 09:31:13;;;;;;;;;;;9.70;99.90;;;;;;4988067;28;19973;-89
2023/03/25 09:33:39;;;;;;;;;;;9.80;99.90;;;;;;4968617;28;19926;-89
2023/03/25 09:36:06;;;;;;;;;;;9.90;99.90;;;;;;5005309;28;19930;-91
2023/03/25 09:38:49;;;;;;;;;;;10.10;99.90;;;;;;4987921;28;19925;-91
2023/03/25 09:41:22;;;;;;;;;;;10.20;99.90;;;;;;5010861;28;19929;-91
2023/03/25 09:44:04;;;;;;;;;;;10.10;99.90;;;;;;5003242;28;20459;-90
2023/03/25 09:46:33;;;;;;;;;;;10.10;99.90;;;;;;4988850;28;20476;-89
2023/03/25 09:48:59;;;;;;;;;;;10.10;99.90;;;;;;4976197;28;19994;-91
2023/03/25 09:51:35;;;;;;;;;;;10.00;99.90;;;;;;4979988;28;19976;-90
2023/03/25 09:54:03;;;;;;;;;;;10.20;99.90;;;;;;4980087;28;19961;-89
2023/03/25 09:56:35;;;;;;;;;;;8.70;99.90;;;;;;4974362;28;20155;-91
2023/03/25 09:59:22;;;;;;;;;;;9.90;99.90;;;;;;5001943;28;19985;-91
2023/03/25 10:01:48;;;;;;;;;;;9.70;99.90;;;;;;4982449;28;19969;-90
2023/03/25 10:04:27;;;;;;;;;;;8.20;99.90;;;;;;4977620;28;20404;-91
2023/03/25 10:07:12;;;;;;;;;;;9.20;99.90;;;;;;4995091;28;19932;-91
2023/03/25 10:09:43;;;;;;;;;;;9.50;99.90;;;;;;4965802;28;19941;-90
2023/03/25 10:12:21;;;;;;;;;;;9.50;99.90;;;;;;4985891;28;20377;-90
2023/03/25 10:15:08;;;;;;;;;;;9.50;99.90;;;;;;4971207;28;20278;-89
2023/03/25 10:17:40;;;;;;;;;;;9.60;99.90;;;;;;4966890;28;19976;-90
2023/03/25 10:20:28;;;;;;;;;;;9.60;99.90;;;;;;4974351;28;20367;-89
2023/03/25 10:23:21;;;;;;;;;;;8.50;99.90;;;;;;4980482;28;19926;-91
2023/03/25 10:25:53;;;;;;;;;;;9.80;99.90;;;;;;4985011;28;19933;-90
2023/03/25 10:28:27;;;;;;;;;;;9.70;99.90;;;;;;5006912;28;19930;-90
2023/03/25 10:30:53;;;;;;;;;;;9.70;99.90;;;;;;4974781;28;19926;-89
2023/03/25 10:33:32;;;;;;;;;;;9.80;99.90;;;;;;4969413;28;19926;-90
2023/03/25 10:36:01;;;;;;;;;;;9.70;99.90;;;;;;4987321;28;19981;-89
2023/03/25 10:38:32;;;;;;;;;;;9.80;99.90;;;;;;4974721;28;20013;-90
2023/03/25 10:41:04;;;;;;;;;;;9.80;99.90;;;;;;4973315;28;20363;-90
2023/03/25 10:43:40;;;;;;;;;;;9.90;99.90;;;;;;4998449;28;20008;-88
2023/03/25 10:46:24;;;;;;;;;;;9.90;99.90;;;;;;4978351;28;19929;-86
2023/03/25 10:48:52;;;;;;;;;;;10.00;99.90;;;;;;4987656;28;20315;-88
2023/03/25 10:51:23;;;;;;;;;;;10.00;99.90;;;;;;4988487;28;19965;-88
2023/03/25 10:53:52;;;;;;;;;;;10.10;99.90;;;;;;4981652;28;20305;-92
2023/03/25 10:56:26;;;;;;;;;;;10.10;99.90;;;;;;4988478;28;20612;-91
2023/03/25 10:58:56;;;;;;;;;;;9.10;99.90;;;;;;4967596;28;19934;-90
2023/03/25 11:01:57;;;;;;;;;;;8.60;99.90;;;;;;4973704;28;19972;-90
2023/03/25 11:04:33;;;;;;;;;;;10.00;99.90;;;;;;4936301;28;19982;-90
2023/03/25 11:07:07;;;;;;;;;;;10.10;99.90;;;;;;4982959;28;19952;-90
2023/03/25 11:09:43;;;;;;;;;;;9.60;99.90;;;;;;4986514;28;20304;-93
2023/03/25 11:13:07;;;;;;;;;;;;;;;;;;;;;
2023/03/25 11:16:14;;;;;;;;;;;10.40;99.90;;;;;;4934607;29;20402;-92
2023/03/25 11:19:18;;;;;;;;;;;10.60;99.90;;;;;;4926101;29;20437;-93
2023/03/25 11:25:13;;;;;;;;;;;9.20;99.90;;;;;;4910215;29;19934;-90
2023/03/25 11:28:07;;;;;;;;;;;10.70;99.90;;;;;;4916872;29;19969;-90
2023/03/25 11:30:36;;;;;;;;;;;11.80;99.90;;;;;;4910459;29;20299;-87
2023/03/25 11:33:22;;;;;;;;;;;10.80;99.90;;;;;;4933357;29;19934;-91
2023/03/25 11:36:07;;;;;;;;;;;9.90;99.90;;;;;;4911648;29;19927;-90
2023/03/25 11:38:39;;;;;;;;;;;10.90;99.90;;;;;;4922791;29;19934;-92
2023/03/25 11:41:08;;;;;;;;;;;10.80;99.90;;;;;;4906818;29;20272;-94
2023/03/25 11:43:37;;;;;;;;;;;10.80;99.90;;;;;;4917077;29;20327;-93
2023/03/25 11:46:12;;;;;;;;;;;10.70;99.90;;;;;;4937927;28;19933;-92
2023/03/25 11:48:43;;;;;;;;;;;10.20;99.90;;;;;;4986765;28;20014;-93
2023/03/25 11:51:37;;;;;;;;;;;10.90;99.90;;;;;;4988434;28;19926;-94
2023/03/25 11:54:22;;;;;;;;;;;11.90;99.90;;;;;;4949105;28;20108;-91
2023/03/25 11:56:49;;;;;;;;;;;10.50;99.90;;;;;;4967910;28;20318;-89
2023/03/25 11:59:21;;;;;;;;;;;10.50;99.90;;;;;;4987832;28;19926;-90
2023/03/25 12:05:12;;;;;;;;;;;;;;;;;;;;;
2023/03/25 12:08:01;;;;;;;;;;;10.90;99.90;;;;;;5020055;28;19926;-94
2023/03/25 12:10:51;;;;;;;;;;;10.60;99.90;;;;;;5005795;28;19929;-92
2023/03/25 12:13:34;;;;;;;;;;;10.90;99.90;;;;;;5000805;28;19941;-93
2023/03/25 12:16:19;;;;;;;;;;;11.00;99.90;;;;;;5018753;28;19969;-94
2023/03/25 12:19:16;;;;;;;;;;;10.90;99.90;;;;;;5013231;28;19914;-92
2023/03/25 12:22:06;;;;;;;;;;;10.90;99.90;;;;;;4999624;28;19926;-91
2023/03/25 12:24:55;;;;;;;;;;;10.70;99.90;;;;;;4980031;28;19930;-91
2023/03/25 12:27:36;;;;;;;;;;;9.60;99.90;;;;;;4978919;28;19914;-92
2023/03/25 12:30:28;;;;;;;;;;;9.90;99.90;;;;;;4988414;28;19989;-89
2023/03/25 12:33:15;;;;;;;;;;;11.20;99.90;;;;;;4974738;28;19930;-91
2023/03/25 12:39:50;;;;;;;;;;;9.90;99.90;;;;;;4987332;28;19914;-89
2023/03/25 12:42:36;;;;;;;;;;;10.80;99.90;;;;;;4973729;28;19960;-92
2023/03/25 12:45:12;;;;;;;;;;;10.70;99.90;;;;;;4970426;28;19926;-91
2023/03/25 12:47:49;;;;;;;;;;;10.70;99.90;;;;;;4962782;28;19925;-90
2023/03/25 12:50:53;;;;;;;;;;;10.90;99.90;;;;;;4968566;28;20040;-91
2023/03/25 12:53:31;;;;;;;;;;;12.20;99.90;;;;;;4882912;29;20430;-90
2023/03/25 12:56:06;;;;;;;;;;;10.50;99.90;;;;;;4877358;29;19935;-89
2023/03/25 12:58:50;;;;;;;;;;;11.10;99.90;;;;;;4939709;28;19983;-88
2023/03/25 13:01:17;;;;;;;;;;;10.60;99.90;;;;;;4985593;28;19933;-88
2023/03/25 13:03:46;;;;;;;;;;;10.80;99.90;;;;;;4992389;28;19930;-87
2023/03/25 13:06:30;;;;;;;;;;;11.00;99.90;;;;;;4982589;28;19926;-88
2023/03/25 13:09:09;;;;;;;;;;;11.20;99.90;;;;;;4998406;28;19926;-87
2023/03/25 13:11:41;;;;;;;;;;;11.10;99.90;;;;;;4994059;28;19941;-88
2023/03/25 13:14:20;;;;;;;;;;;11.10;99.90;;;;;;4981207;28;19929;-89
2023/03/25 13:16:50;;;;;;;;;;;10.00;99.90;;;;;;4979663;28;19929;-89
2023/03/25 13:19:19;;;;;;;;;;;10.80;99.90;;;;;;4994135;28;19933;-89
2023/03/25 13:21:52;;;;;;;;;;;10.90;99.90;;;;;;4985902;28;19934;-90
2023/03/25 13:24:22;;;;;;;;;;;10.80;99.90;;;;;;4992304;28;20012;-90
2023/03/25 13:26:52;;;;;;;;;;;10.50;99.90;;;;;;4989072;28;19949;-88
2023/03/25 13:29:21;;;;;;;;;;;10.50;99.90;;;;;;5004098;28;19930;-89
2023/03/25 13:31:52;;;;;;;;;;;10.50;99.90;;;;;;4990464;28;20385;-88
2023/03/25 13:34:22;;;;;;;;;;;10.40;99.90;;;;;;4993810;28;19926;-89
2023/03/25 13:36:56;;;;;;;;;;;10.60;99.90;;;;;;4980779;28;19933;-90
2023/03/25 13:39:26;;;;;;;;;;;10.40;99.90;;;;;;5004541;28;19926;-88
2023/03/25 13:41:58;;;;;;;;;;;10.50;99.90;;;;;;4986297;28;19925;-89
2023/03/25 13:44:45;;;;;;;;;;;10.80;99.90;;;;;;4999738;28;20335;-87
2023/03/25 13:47:24;;;;;;;;;;;11.00;99.90;;;;;;4999590;28;19984;-89
2023/03/25 13:49:56;;;;;;;;;;;11.20;99.90;;;;;;4994973;28;19940;-90
2023/03/25 13:52:28;;;;;;;;;;;10.80;99.90;;;;;;4989878;28;19926;-89
2023/03/25 13:55:00;;;;;;;;;;;10.70;99.90;;;;;;4979290;28;19926;-90
2023/03/25 13:57:46;;;;;;;;;;;10.70;99.90;;;;;;4990057;28;19930;-91
2023/03/25 14:00:18;;;;;;;;;;;9.30;99.90;;;;;;4999522;28;19926;-89
2023/03/25 14:02:47;;;;;;;;;;;10.30;99.90;;;;;;4984576;28;20309;-91
2023/03/25 14:05:23;;;;;;;;;;;8.80;99.90;;;;;;4992419;28;20380;-88
2023/03/25 14:08:07;;;;;;;;;;;9.90;99.90;;;;;;4988736;28;19999;-90
2023/03/25 14:10:49;;;;;;;;;;;10.00;99.90;;;;;;4974745;28;19929;-90
2023/03/25 14:13:24;;;;;;;;;;;9.00;99.90;;;;;;4990087;28;20355;-89
2023/03/25 14:16:05;;;;;;;;;;;9.50;99.90;;;;;;4991814;28;19926;-89
2023/03/25 14:18:51;;;;;;;;;;;10.70;99.90;;;;;;4982075;28;19926;-91
2023/03/25 14:21:43;;;;;;;;;;;9.80;99.90;;;;;;4989303;28;19930;-90
2023/03/25 14:24:15;;;;;;;;;;;9.70;99.90;;;;;;4976544;28;20031;-91
2023/03/25 14:27:00;;;;;;;;;;;9.40;99.90;;;;;;5002905;28;19941;-89
2023/03/25 14:29:35;;;;;;;;;;;9.50;99.90;;;;;;4997310;28;20401;-91
2023/03/25 14:32:13;;;;;;;;;;;8.10;99.90;;;;;;4993814;28;19929;-90
2023/03/25 14:34:41;;;;;;;;;;;9.40;99.90;;;;;;4978040;28;19929;-90
2023/03/25 14:37:09;;;;;;;;;;;9.50;99.90;;;;;;4984007;28;19933;-90
2023/03/25 14:39:38;;;;;;;;;;;9.30;99.90;;;;;;4973997;28;19933;-90
2023/03/25 14:42:17;;;;;;;;;;;;;;;;;;;;;
2023/03/25 14:44:53;;;;;;;;;;;8.50;99.90;;;;;;4993226;28;19930;-89
2023/03/25 14:47:24;;;;;;;;;;;9.60;99.90;;;;;;4962177;28;19933;-91
2023/03/25 14:50:03;;;;;;;;;;;9.50;99.90;;;;;;4993367;28;19925;-89
2023/03/25 14:52:31;;;;;;;;;;;9.40;99.90;;;;;;4977223;28;20373;-89
2023/03/25 14:54:58;;;;;;;;;;;9.30;99.90;;;;;;5014710;28;19925;-90
2023/03/25 14:57:27;;;;;;;;;;;9.20;99.90;;;;;;4982305;28;20450;-89
2023/03/25 15:00:12;;;;;;;;;;;10.20;99.90;;;;;;4983405;28;19980;-91
2023/03/25 15:02:49;;;;;;;;;;;8.20;99.90;;;;;;4973650;28;19972;-90
2023/03/25 15:09:01;;;;;;;;;;;9.40;99.90;;;;;;4997315;28;19972;-92
2023/03/25 15:11:42;;;;;;;;;;;8.40;99.90;;;;;;4951234;28;20389;-91
2023/03/25 15:14:31;;;;;;;;;;;9.10;99.90;;;;;;4958278;28;20381;-92
2023/03/25 15:17:15;;;;;;;;;;;9.40;99.90;;;;;;4970608;28;20012;-94
2023/03/25 15:20:10;;;;;;;;;;;;;;;;;;;;;